sensor_id;sensor_type;location;lat;lon;timestamp;pressure;altitude;pressure_sealevel;temperature;humidity
9225;BME280;4647;48.072;11.616;2023-02-02T00:01:32;95677.97;;;3.46;66.08
9225;BME280;4647;48.072;11.616;2023-02-02T00:04:01;95655.28;;;3.59;65.44
9225;BME280;4647;48.072;11.616;2023-02-02T00:06:30;95657.78;;;3.52;65.91
9225;BME280;4647;48.072;11.616;2023-02-02T00:08:59;95681.47;;;3.50;65.34
9225;BME280;4647;48.072;11.616;2023-02-02T00:11:27;95671.91;;;3.49;65.72
9225;BME280;4647;48.072;11.616;2023-02-02T00:13:56;95673.81;;;3.49;66.06
9225;BME280;4647;48.072;11.616;2023-02-02T00:16:37;95676.13;;;3.50;65.80
9225;BME280;4647;48.072;11.616;2023-02-02T00:19:07;95670.28;;;3.45;66.53
9225;BME280;4647;48.072;11.616;2023-02-02T00:21:35;95658.44;;;3.46;66.33
9225;BME280;4647;48.072;11.616;2023-02-02T00:24:04;95662.31;;;3.48;66.14
9225;BME280;4647;48.072;11.616;2023-02-02T00:26:32;95664.09;;;3.41;66.18
9225;BME280;4647;48.072;11.616;2023-02-02T00:29:00;95667.59;;;3.45;66.42
9225;BME280;4647;48.072;11.616;2023-02-02T00:31:29;95663.25;;;3.36;66.78
9225;BME280;4647;48.072;11.616;2023-02-02T00:34:00;95655.84;;;3.30;67.24
9225;BME280;4647;48.072;11.616;2023-02-02T00:36:28;95646.41;;;3.36;66.92
9225;BME280;4647;48.072;11.616;2023-02-02T00:38:56;95640.69;;;3.37;66.73
9225;BME280;4647;48.072;11.616;2023-02-02T00:41:24;95666.34;;;3.38;66.55
9225;BME280;4647;48.072;11.616;2023-02-02T00:43:52;95652.47;;;3.33;67.13
9225;BME280;4647;48.072;11.616;2023-02-02T00:46:33;95655.50;;;3.31;67.35
9225;BME280;4647;48.072;11.616;2023-02-02T00:49:04;95655.16;;;3.33;67.45
9225;BME280;4647;48.072;11.616;2023-02-02T00:51:32;95651.19;;;3.27;67.90
9225;BME280;4647;48.072;11.616;2023-02-02T00:54:01;95652.75;;;3.28;68.53
9225;BME280;4647;48.072;11.616;2023-02-02T00:56:29;95646.53;;;3.24;68.73
9225;BME280;4647;48.072;11.616;2023-02-02T00:58:57;95659.50;;;3.22;69.29
9225;BME280;4647;48.072;11.616;2023-02-02T01:01:25;95657.53;;;3.19;69.68
9225;BME280;4647;48.072;11.616;2023-02-02T01:03:54;95661.22;;;3.11;69.98
9225;BME280;4647;48.072;11.616;2023-02-02T01:06:25;95669.84;;;3.04;70.87
9225;BME280;4647;48.072;11.616;2023-02-02T01:08:53;95645.91;;;2.92;71.72
9225;BME280;4647;48.072;11.616;2023-02-02T01:11:22;95671.91;;;2.91;72.26
9225;BME280;4647;48.072;11.616;2023-02-02T01:13:50;95643.59;;;2.90;72.68
9225;BME280;4647;48.072;11.616;2023-02-02T01:16:18;95662.44;;;2.78;73.76
9225;BME280;4647;48.072;11.616;2023-02-02T01:18:47;95649.84;;;2.78;74.15
9225;BME280;4647;48.072;11.616;2023-02-02T01:21:15;95654.47;;;2.82;73.35
9225;BME280;4647;48.072;11.616;2023-02-02T01:23:46;95658.91;;;2.74;74.17
9225;BME280;4647;48.072;11.616;2023-02-02T01:26:15;95652.28;;;2.68;74.37
9225;BME280;4647;48.072;11.616;2023-02-02T01:28:44;95653.91;;;2.72;74.24
9225;BME280;4647;48.072;11.616;2023-02-02T01:31:13;95655.81;;;2.72;74.33
9225;BME280;4647;48.072;11.616;2023-02-02T01:33:42;95650.81;;;2.70;74.47
9225;BME280;4647;48.072;11.616;2023-02-02T01:36:12;95651.03;;;2.81;73.53
9225;BME280;4647;48.072;11.616;2023-02-02T01:38:41;95636.09;;;2.80;73.37
9225;BME280;4647;48.072;11.616;2023-02-02T01:41:21;95637.03;;;2.88;73.21
9225;BME280;4647;48.072;11.616;2023-02-02T01:43:51;95639.38;;;2.89;72.57
9225;BME280;4647;48.072;11.616;2023-02-02T01:46:20;95646.69;;;2.92;72.82
9225;BME280;4647;48.072;11.616;2023-02-02T01:48:51;95637.13;;;2.91;72.84
9225;BME280;4647;48.072;11.616;2023-02-02T01:51:21;95638.44;;;3.01;71.46
9225;BME280;4647;48.072;11.616;2023-02-02T01:53:51;95632.66;;;2.99;71.98
9225;BME280;4647;48.072;11.616;2023-02-02T01:56:23;95623.50;;;3.00;71.79
9225;BME280;4647;48.072;11.616;2023-02-02T01:58:53;95631.53;;;3.00;71.75
9225;BME280;4647;48.072;11.616;2023-02-02T02:01:21;95625.84;;;3.01;71.48
9225;BME280;4647;48.072;11.616;2023-02-02T02:03:50;95634.63;;;3.02;71.04
9225;BME280;4647;48.072;11.616;2023-02-02T02:06:18;95625.91;;;3.05;71.31
9225;BME280;4647;48.072;11.616;2023-02-02T02:08:51;95615.56;;;3.03;71.07
9225;BME280;4647;48.072;11.616;2023-02-02T02:11:23;95630.56;;;3.08;71.30
9225;BME280;4647;48.072;11.616;2023-02-02T02:13:51;95628.56;;;3.05;70.90
9225;BME280;4647;48.072;11.616;2023-02-02T02:16:35;95639.03;;;3.10;70.90
9225;BME280;4647;48.072;11.616;2023-02-02T02:19:11;95630.84;;;3.03;71.12
9225;BME280;4647;48.072;11.616;2023-02-02T02:21:44;95620.66;;;3.08;70.75
9225;BME280;4647;48.072;11.616;2023-02-02T02:30:15;95618.09;;;2.96;71.64
9225;BME280;4647;48.072;11.616;2023-02-02T02:32:51;95623.66;;;3.07;70.88
9225;BME280;4647;48.072;11.616;2023-02-02T02:35:27;95627.81;;;3.04;71.20
9225;BME280;4647;48.072;11.616;2023-02-02T02:37:58;95624.16;;;3.13;70.52
9225;BME280;4647;48.072;11.616;2023-02-02T02:40:28;95619.59;;;3.13;70.42
9225;BME280;4647;48.072;11.616;2023-02-02T02:43:00;95608.88;;;3.13;70.54
9225;BME280;4647;48.072;11.616;2023-02-02T02:45:30;95609.50;;;3.06;70.77
9225;BME280;4647;48.072;11.616;2023-02-02T02:48:01;95597.41;;;3.13;70.47
9225;BME280;4647;48.072;11.616;2023-02-02T02:50:30;95612.25;;;3.10;70.49
9225;BME280;4647;48.072;11.616;2023-02-02T02:53:01;95597.66;;;3.07;70.85
9225;BME280;4647;48.072;11.616;2023-02-02T02:55:31;95606.69;;;3.19;70.08
9225;BME280;4647;48.072;11.616;2023-02-02T02:58:04;95601.31;;;3.19;70.02
9225;BME280;4647;48.072;11.616;2023-02-02T03:00:37;95615.06;;;3.17;70.13
9225;BME280;4647;48.072;11.616;2023-02-02T03:03:13;95618.28;;;3.26;69.62
9225;BME280;4647;48.072;11.616;2023-02-02T03:05:46;95603.66;;;3.20;69.93
9225;BME280;4647;48.072;11.616;2023-02-02T03:08:19;95629.34;;;3.25;69.96
9225;BME280;4647;48.072;11.616;2023-02-02T03:10:50;95607.94;;;3.25;69.65
9225;BME280;4647;48.072;11.616;2023-02-02T03:13:19;95618.16;;;3.19;69.96
9225;BME280;4647;48.072;11.616;2023-02-02T03:15:47;95604.97;;;3.30;69.50
9225;BME280;4647;48.072;11.616;2023-02-02T03:18:18;95617.50;;;3.26;69.44
9225;BME280;4647;48.072;11.616;2023-02-02T03:20:49;95608.41;;;3.30;69.39
9225;BME280;4647;48.072;11.616;2023-02-02T03:23:17;95611.38;;;3.25;69.96
9225;BME280;4647;48.072;11.616;2023-02-02T03:25:46;95596.38;;;3.21;70.87
9225;BME280;4647;48.072;11.616;2023-02-02T03:28:14;95624.00;;;3.25;70.42
9225;BME280;4647;48.072;11.616;2023-02-02T03:30:43;95610.97;;;3.23;70.23
9225;BME280;4647;48.072;11.616;2023-02-02T03:33:12;95609.06;;;3.24;70.69
9225;BME280;4647;48.072;11.616;2023-02-02T03:35:45;95629.94;;;3.15;71.13
9225;BME280;4647;48.072;11.616;2023-02-02T03:38:13;95624.00;;;3.05;73.04
9225;BME280;4647;48.072;11.616;2023-02-02T03:40:41;95628.25;;;2.87;74.73
9225;BME280;4647;48.072;11.616;2023-02-02T03:43:09;95627.59;;;2.74;75.96
9225;BME280;4647;48.072;11.616;2023-02-02T03:45:38;95624.00;;;2.67;76.71
9225;BME280;4647;48.072;11.616;2023-02-02T03:48:06;95644.25;;;2.68;76.85
9225;BME280;4647;48.072;11.616;2023-02-02T03:50:35;95626.38;;;2.72;76.56
9225;BME280;4647;48.072;11.616;2023-02-02T03:53:07;95635.53;;;2.71;76.34
9225;BME280;4647;48.072;11.616;2023-02-02T03:55:35;95629.19;;;2.79;75.78
9225;BME280;4647;48.072;11.616;2023-02-02T03:58:04;95636.53;;;2.82;75.65
9225;BME280;4647;48.072;11.616;2023-02-02T04:00:32;95618.50;;;2.79;75.33
9225;BME280;4647;48.072;11.616;2023-02-02T04:03:01;95635.22;;;2.92;74.05
9225;BME280;4647;48.072;11.616;2023-02-02T04:05:29;95632.25;;;2.97;75.23
9225;BME280;4647;48.072;11.616;2023-02-02T04:07:57;95652.88;;;2.96;74.25
9225;BME280;4647;48.072;11.616;2023-02-02T04:10:28;95626.13;;;2.96;74.16
9225;BME280;4647;48.072;11.616;2023-02-02T04:12:56;95616.31;;;3.04;73.43
9225;BME280;4647;48.072;11.616;2023-02-02T04:15:24;95631.69;;;3.07;73.35
9225;BME280;4647;48.072;11.616;2023-02-02T04:17:53;95627.91;;;3.08;73.25
9225;BME280;4647;48.072;11.616;2023-02-02T04:20:21;95621.84;;;3.11;73.68
9225;BME280;4647;48.072;11.616;2023-02-02T04:22:49;95630.41;;;3.20;72.50
9225;BME280;4647;48.072;11.616;2023-02-02T04:25:17;95633.94;;;3.24;72.29
9225;BME280;4647;48.072;11.616;2023-02-02T04:27:48;95634.28;;;3.23;72.73
9225;BME280;4647;48.072;11.616;2023-02-02T04:30:16;95625.97;;;3.28;72.40
9225;BME280;4647;48.072;11.616;2023-02-02T04:32:45;95640.84;;;3.25;72.36
9225;BME280;4647;48.072;11.616;2023-02-02T04:35:13;95632.59;;;3.34;71.80
9225;BME280;4647;48.072;11.616;2023-02-02T04:37:42;95650.06;;;3.28;72.20
9225;BME280;4647;48.072;11.616;2023-02-02T04:40:11;95625.97;;;3.28;72.38
9225;BME280;4647;48.072;11.616;2023-02-02T04:42:39;95635.06;;;3.23;72.91
9225;BME280;4647;48.072;11.616;2023-02-02T04:45:12;95644.44;;;3.14;73.77
9225;BME280;4647;48.072;11.616;2023-02-02T04:47:40;95647.84;;;3.11;74.54
9225;BME280;4647;48.072;11.616;2023-02-02T04:50:09;95648.38;;;3.20;73.84
9225;BME280;4647;48.072;11.616;2023-02-02T04:52:38;95651.84;;;3.20;73.96
9225;BME280;4647;48.072;11.616;2023-02-02T04:55:06;95651.19;;;3.27;72.58
9225;BME280;4647;48.072;11.616;2023-02-02T04:57:35;95620.97;;;3.26;72.71
9225;BME280;4647;48.072;11.616;2023-02-02T05:00:03;95645.63;;;3.35;71.43
9225;BME280;4647;48.072;11.616;2023-02-02T05:02:36;95641.06;;;3.36;71.57
9225;BME280;4647;48.072;11.616;2023-02-02T05:05:06;95610.75;;;3.32;71.63
9225;BME280;4647;48.072;11.616;2023-02-02T05:07:35;95634.22;;;3.38;71.53
9225;BME280;4647;48.072;11.616;2023-02-02T05:10:04;95642.19;;;3.35;71.42
9225;BME280;4647;48.072;11.616;2023-02-02T05:12:33;95650.75;;;3.44;71.21
9225;BME280;4647;48.072;11.616;2023-02-02T05:15:01;95626.19;;;3.38;71.56
9225;BME280;4647;48.072;11.616;2023-02-02T05:17:30;95625.00;;;3.36;71.57
9225;BME280;4647;48.072;11.616;2023-02-02T05:20:00;95665.16;;;3.36;71.47
9225;BME280;4647;48.072;11.616;2023-02-02T05:22:28;95672.47;;;3.39;71.65
9225;BME280;4647;48.072;11.616;2023-02-02T05:24:57;95674.03;;;3.40;71.70
9225;BME280;4647;48.072;11.616;2023-02-02T05:27:25;95668.69;;;3.40;71.88
9225;BME280;4647;48.072;11.616;2023-02-02T05:29:53;95666.72;;;3.37;71.70
9225;BME280;4647;48.072;11.616;2023-02-02T05:32:22;95681.28;;;3.39;71.95
9225;BME280;4647;48.072;11.616;2023-02-02T05:34:50;95668.19;;;3.34;72.76
9225;BME280;4647;48.072;11.616;2023-02-02T05:37:20;95675.72;;;3.29;72.84
9225;BME280;4647;48.072;11.616;2023-02-02T05:39:49;95676.78;;;3.24;73.20
9225;BME280;4647;48.072;11.616;2023-02-02T05:42:17;95673.25;;;3.20;73.90
9225;BME280;4647;48.072;11.616;2023-02-02T05:44:46;95662.19;;;3.22;74.15
9225;BME280;4647;48.072;11.616;2023-02-02T05:47:14;95668.03;;;3.27;73.54
9225;BME280;4647;48.072;11.616;2023-02-02T05:49:42;95673.38;;;3.27;73.26
9225;BME280;4647;48.072;11.616;2023-02-02T05:52:10;95677.63;;;3.28;73.79
9225;BME280;4647;48.072;11.616;2023-02-02T05:54:45;95675.09;;;3.16;75.02
9225;BME280;4647;48.072;11.616;2023-02-02T05:57:13;95672.34;;;3.13;74.93
9225;BME280;4647;48.072;11.616;2023-02-02T05:59:41;95659.00;;;2.97;75.74
9225;BME280;4647;48.072;11.616;2023-02-02T06:02:09;95663.72;;;3.03;76.01
9225;BME280;4647;48.072;11.616;2023-02-02T06:04:38;95682.88;;;3.05;75.72
9225;BME280;4647;48.072;11.616;2023-02-02T06:07:06;95681.34;;;3.04;76.15
9225;BME280;4647;48.072;11.616;2023-02-02T06:09:34;95674.31;;;3.16;74.89
9225;BME280;4647;48.072;11.616;2023-02-02T06:12:05;95656.28;;;3.13;74.72
9225;BME280;4647;48.072;11.616;2023-02-02T06:14:33;95683.31;;;3.27;73.40
9225;BME280;4647;48.072;11.616;2023-02-02T06:17:02;95681.16;;;3.32;73.35
9225;BME280;4647;48.072;11.616;2023-02-02T06:19:30;95696.00;;;3.30;73.44
9225;BME280;4647;48.072;11.616;2023-02-02T06:21:59;95684.88;;;3.28;73.19
9225;BME280;4647;48.072;11.616;2023-02-02T06:24:27;95664.03;;;3.18;74.64
9225;BME280;4647;48.072;11.616;2023-02-02T06:26:55;95673.25;;;3.20;74.39
9225;BME280;4647;48.072;11.616;2023-02-02T06:29:26;95684.38;;;3.22;74.09
9225;BME280;4647;48.072;11.616;2023-02-02T06:31:54;95666.41;;;3.23;74.27
9225;BME280;4647;48.072;11.616;2023-02-02T06:34:22;95686.72;;;3.24;74.04
9225;BME280;4647;48.072;11.616;2023-02-02T06:36:50;95704.03;;;3.30;73.28
9225;BME280;4647;48.072;11.616;2023-02-02T06:39:18;95684.44;;;3.26;73.61
9225;BME280;4647;48.072;11.616;2023-02-02T06:41:47;95677.34;;;3.33;73.52
9225;BME280;4647;48.072;11.616;2023-02-02T06:44:16;95683.91;;;3.36;73.39
9225;BME280;4647;48.072;11.616;2023-02-02T06:46:47;95686.06;;;3.30;73.40
9225;BME280;4647;48.072;11.616;2023-02-02T06:49:15;95681.66;;;3.38;72.94
9225;BME280;4647;48.072;11.616;2023-02-02T06:51:45;95665.16;;;3.36;73.24
9225;BME280;4647;48.072;11.616;2023-02-02T06:54:13;95677.47;;;3.41;72.85
9225;BME280;4647;48.072;11.616;2023-02-02T06:56:41;95691.22;;;3.39;72.67
9225;BME280;4647;48.072;11.616;2023-02-02T06:59:09;95686.66;;;3.39;72.65
9225;BME280;4647;48.072;11.616;2023-02-02T07:01:37;95719.56;;;3.40;72.61
9225;BME280;4647;48.072;11.616;2023-02-02T07:04:08;95717.16;;;3.35;73.25
9225;BME280;4647;48.072;11.616;2023-02-02T07:06:36;95716.03;;;3.36;73.67
9225;BME280;4647;48.072;11.616;2023-02-02T07:09:05;95709.63;;;3.41;73.21
9225;BME280;4647;48.072;11.616;2023-02-02T07:11:34;95724.16;;;3.39;73.06
9225;BME280;4647;48.072;11.616;2023-02-02T07:14:02;95720.75;;;3.43;72.90
9225;BME280;4647;48.072;11.616;2023-02-02T07:16:30;95718.84;;;3.43;72.95
9225;BME280;4647;48.072;11.616;2023-02-02T07:18:58;95711.09;;;3.38;73.20
9225;BME280;4647;48.072;11.616;2023-02-02T07:21:30;95721.09;;;3.41;72.82
9225;BME280;4647;48.072;11.616;2023-02-02T07:23:59;95731.13;;;3.44;72.88
9225;BME280;4647;48.072;11.616;2023-02-02T07:26:28;95733.22;;;3.54;72.77
9225;BME280;4647;48.072;11.616;2023-02-02T07:28:56;95735.00;;;3.47;73.03
9225;BME280;4647;48.072;11.616;2023-02-02T07:31:24;95735.06;;;3.50;72.88
9225;BME280;4647;48.072;11.616;2023-02-02T07:33:53;95726.25;;;3.50;72.71
9225;BME280;4647;48.072;11.616;2023-02-02T07:36:22;95736.00;;;3.58;72.29
9225;BME280;4647;48.072;11.616;2023-02-02T07:38:53;95747.19;;;3.63;72.47
9225;BME280;4647;48.072;11.616;2023-02-02T07:41:22;95739.34;;;3.55;72.96
9225;BME280;4647;48.072;11.616;2023-02-02T07:43:50;95757.47;;;3.42;73.77
9225;BME280;4647;48.072;11.616;2023-02-02T07:46:18;95740.34;;;3.47;73.92
9225;BME280;4647;48.072;11.616;2023-02-02T07:48:47;95764.53;;;3.50;73.90
9225;BME280;4647;48.072;11.616;2023-02-02T07:51:16;95757.47;;;3.42;74.35
9225;BME280;4647;48.072;11.616;2023-02-02T07:53:44;95763.75;;;3.50;76.02
9225;BME280;4647;48.072;11.616;2023-02-02T07:56:16;95752.97;;;3.46;77.31
9225;BME280;4647;48.072;11.616;2023-02-02T07:58:45;95756.34;;;3.43;76.48
9225;BME280;4647;48.072;11.616;2023-02-02T08:01:14;95763.25;;;3.44;75.52
9225;BME280;4647;48.072;11.616;2023-02-02T08:03:45;95763.19;;;3.41;76.01
9225;BME280;4647;48.072;11.616;2023-02-02T08:06:14;95760.00;;;3.35;76.32
9225;BME280;4647;48.072;11.616;2023-02-02T08:08:42;95755.09;;;3.37;76.35
9225;BME280;4647;48.072;11.616;2023-02-02T08:11:11;95767.69;;;3.36;76.81
9225;BME280;4647;48.072;11.616;2023-02-02T08:13:42;95762.41;;;3.40;76.79
9225;BME280;4647;48.072;11.616;2023-02-02T08:16:11;95762.06;;;3.42;76.45
9225;BME280;4647;48.072;11.616;2023-02-02T08:18:39;95760.88;;;3.39;76.90
9225;BME280;4647;48.072;11.616;2023-02-02T08:21:08;95761.41;;;3.29;77.21
9225;BME280;4647;48.072;11.616;2023-02-02T08:23:37;95780.66;;;3.34;77.10
9225;BME280;4647;48.072;11.616;2023-02-02T08:26:06;95778.25;;;3.29;77.32
9225;BME280;4647;48.072;11.616;2023-02-02T08:28:34;95779.88;;;3.34;76.24
9225;BME280;4647;48.072;11.616;2023-02-02T08:31:07;95795.25;;;3.37;76.50
9225;BME280;4647;48.072;11.616;2023-02-02T08:33:35;95808.22;;;3.35;76.96
9225;BME280;4647;48.072;11.616;2023-02-02T08:36:04;95816.25;;;3.35;76.84
9225;BME280;4647;48.072;11.616;2023-02-02T08:38:34;95814.19;;;3.28;76.98
9225;BME280;4647;48.072;11.616;2023-02-02T08:41:03;95813.50;;;3.31;77.58
9225;BME280;4647;48.072;11.616;2023-02-02T08:43:31;95810.53;;;3.36;77.78
9225;BME280;4647;48.072;11.616;2023-02-02T08:46:00;95799.00;;;3.32;77.44
9225;BME280;4647;48.072;11.616;2023-02-02T08:48:31;95808.56;;;3.33;77.61
9225;BME280;4647;48.072;11.616;2023-02-02T08:50:59;95811.84;;;3.27;77.88
9225;BME280;4647;48.072;11.616;2023-02-02T08:53:27;95812.97;;;3.26;78.23
9225;BME280;4647;48.072;11.616;2023-02-02T08:55:58;95815.22;;;3.24;78.30
9225;BME280;4647;48.072;11.616;2023-02-02T08:58:28;95811.50;;;3.28;78.54
9225;BME280;4647;48.072;11.616;2023-02-02T09:01:02;95822.47;;;3.23;78.36
9225;BME280;4647;48.072;11.616;2023-02-02T09:03:33;95824.66;;;3.18;79.20
9225;BME280;4647;48.072;11.616;2023-02-02T09:06:04;95817.75;;;3.17;80.21
9225;BME280;4647;48.072;11.616;2023-02-02T09:08:33;95810.94;;;3.19;80.30
9225;BME280;4647;48.072;11.616;2023-02-02T09:11:04;95822.97;;;3.29;79.02
9225;BME280;4647;48.072;11.616;2023-02-02T09:13:33;95813.75;;;3.26;78.36
9225;BME280;4647;48.072;11.616;2023-02-02T09:16:01;95821.63;;;3.35;77.97
9225;BME280;4647;48.072;11.616;2023-02-02T09:18:33;95821.06;;;3.45;77.73
9225;BME280;4647;48.072;11.616;2023-02-02T09:21:02;95823.72;;;3.45;77.74
9225;BME280;4647;48.072;11.616;2023-02-02T09:23:31;95818.66;;;3.40;77.75
9225;BME280;4647;48.072;11.616;2023-02-02T09:26:07;95835.78;;;3.35;77.77
9225;BME280;4647;48.072;11.616;2023-02-02T09:28:36;95826.75;;;3.44;77.26
9225;BME280;4647;48.072;11.616;2023-02-02T09:31:04;95832.91;;;3.44;77.06
9225;BME280;4647;48.072;11.616;2023-02-02T09:33:35;95829.78;;;3.42;77.21
9225;BME280;4647;48.072;11.616;2023-02-02T09:36:04;95836.34;;;3.45;77.62
9225;BME280;4647;48.072;11.616;2023-02-02T09:38:32;95837.41;;;3.40;77.39
9225;BME280;4647;48.072;11.616;2023-02-02T09:41:01;95842.13;;;3.47;77.24
9225;BME280;4647;48.072;11.616;2023-02-02T09:43:43;95830.88;;;3.57;77.35
9225;BME280;4647;48.072;11.616;2023-02-02T09:46:17;95829.81;;;3.61;76.95
9225;BME280;4647;48.072;11.616;2023-02-02T09:48:52;95843.38;;;3.68;76.56
9225;BME280;4647;48.072;11.616;2023-02-02T09:51:24;95838.00;;;3.68;76.59
9225;BME280;4647;48.072;11.616;2023-02-02T09:53:56;95817.84;;;3.75;76.61
9225;BME280;4647;48.072;11.616;2023-02-02T09:56:28;95840.06;;;3.75;76.64
9225;BME280;4647;48.072;11.616;2023-02-02T09:58:59;95840.25;;;3.66;76.50
9225;BME280;4647;48.072;11.616;2023-02-02T10:01:29;95841.03;;;3.67;77.20
9225;BME280;4647;48.072;11.616;2023-02-02T10:04:02;95848.59;;;3.61;77.75
9225;BME280;4647;48.072;11.616;2023-02-02T10:06:33;95846.31;;;3.63;77.91
9225;BME280;4647;48.072;11.616;2023-02-02T10:09:06;95854.72;;;3.62;77.92
9225;BME280;4647;48.072;11.616;2023-02-02T10:11:36;95845.19;;;3.64;77.39
9225;BME280;4647;48.072;11.616;2023-02-02T10:14:08;95847.25;;;3.71;77.25
9225;BME280;4647;48.072;11.616;2023-02-02T10:16:38;95845.91;;;3.61;77.03
9225;BME280;4647;48.072;11.616;2023-02-02T10:19:11;95855.50;;;3.62;77.30
9225;BME280;4647;48.072;11.616;2023-02-02T10:21:42;95835.31;;;3.68;76.66
9225;BME280;4647;48.072;11.616;2023-02-02T10:24:14;95834.09;;;3.82;75.97
9225;BME280;4647;48.072;11.616;2023-02-02T10:26:44;95839.56;;;3.89;75.59
9225;BME280;4647;48.072;11.616;2023-02-02T10:29:15;95838.31;;;3.83;78.02
9225;BME280;4647;48.072;11.616;2023-02-02T10:31:47;95847.38;;;3.78;75.36
9225;BME280;4647;48.072;11.616;2023-02-02T10:34:20;95839.63;;;3.73;76.03
9225;BME280;4647;48.072;11.616;2023-02-02T10:36:55;95838.31;;;3.83;75.39
9225;BME280;4647;48.072;11.616;2023-02-02T10:39:29;95825.94;;;3.97;74.75
9225;BME280;4647;48.072;11.616;2023-02-02T10:42:05;95825.88;;;3.94;74.82
9225;BME280;4647;48.072;11.616;2023-02-02T10:44:39;95807.84;;;3.91;74.75
9225;BME280;4647;48.072;11.616;2023-02-02T10:47:10;95824.88;;;4.02;74.84
9225;BME280;4647;48.072;11.616;2023-02-02T10:49:42;95832.44;;;3.96;74.78
9225;BME280;4647;48.072;11.616;2023-02-02T10:52:13;95813.91;;;3.88;74.55
9225;BME280;4647;48.072;11.616;2023-02-02T10:54:45;95815.66;;;3.99;74.18
9225;BME280;4647;48.072;11.616;2023-02-02T10:57:17;95813.63;;;3.93;73.89
9225;BME280;4647;48.072;11.616;2023-02-02T10:59:49;95805.94;;;3.91;73.95
9225;BME280;4647;48.072;11.616;2023-02-02T11:02:22;95816.59;;;4.07;73.67
9225;BME280;4647;48.072;11.616;2023-02-02T11:04:53;95805.91;;;4.11;73.93
9225;BME280;4647;48.072;11.616;2023-02-02T11:07:34;95803.06;;;4.23;73.64
9225;BME280;4647;48.072;11.616;2023-02-02T11:10:03;95799.06;;;4.13;73.64
9225;BME280;4647;48.072;11.616;2023-02-02T11:12:32;95792.56;;;4.14;73.86
9225;BME280;4647;48.072;11.616;2023-02-02T11:15:02;95794.94;;;4.39;73.45
9225;BME280;4647;48.072;11.616;2023-02-02T11:17:30;95788.00;;;4.38;73.21
9225;BME280;4647;48.072;11.616;2023-02-02T11:20:01;95818.78;;;4.24;73.46
9225;BME280;4647;48.072;11.616;2023-02-02T11:22:48;95826.28;;;4.35;74.02
9225;BME280;4647;48.072;11.616;2023-02-02T11:25:26;95799.53;;;4.38;73.71
9225;BME280;4647;48.072;11.616;2023-02-02T11:27:58;95815.38;;;4.47;72.70
9225;BME280;4647;48.072;11.616;2023-02-02T11:30:29;95801.47;;;4.41;73.68
9225;BME280;4647;48.072;11.616;2023-02-02T11:32:59;95797.56;;;4.35;73.71
9225;BME280;4647;48.072;11.616;2023-02-02T11:35:54;95821.88;;;4.46;73.46
9225;BME280;4647;48.072;11.616;2023-02-02T11:38:22;95781.22;;;4.44;73.52
9225;BME280;4647;48.072;11.616;2023-02-02T11:40:52;95797.19;;;4.37;74.44
9225;BME280;4647;48.072;11.616;2023-02-02T11:43:23;95794.44;;;4.33;74.62
9225;BME280;4647;48.072;11.616;2023-02-02T11:45:53;95789.13;;;4.14;74.71
9225;BME280;4647;48.072;11.616;2023-02-02T11:48:25;95812.91;;;4.15;74.77
9225;BME280;4647;48.072;11.616;2023-02-02T11:50:57;95819.25;;;4.26;75.05
9225;BME280;4647;48.072;11.616;2023-02-02T11:53:26;95814.50;;;4.20;74.61
9225;BME280;4647;48.072;11.616;2023-02-02T11:55:56;95815.56;;;4.35;74.76
9225;BME280;4647;48.072;11.616;2023-02-02T11:58:26;95821.41;;;4.21;73.68
9225;BME280;4647;48.072;11.616;2023-02-02T12:00:55;95826.03;;;4.43;74.14
9225;BME280;4647;48.072;11.616;2023-02-02T12:03:25;95813.25;;;4.56;73.97
9225;BME280;4647;48.072;11.616;2023-02-02T12:05:54;95812.00;;;4.50;74.07
9225;BME280;4647;48.072;11.616;2023-02-02T12:08:25;95800.41;;;4.46;74.28
9225;BME280;4647;48.072;11.616;2023-02-02T12:10:57;95795.97;;;4.53;74.42
9225;BME280;4647;48.072;11.616;2023-02-02T12:16:23;95807.81;;;4.29;74.11
9225;BME280;4647;48.072;11.616;2023-02-02T12:19:04;95816.47;;;4.23;74.77
9225;BME280;4647;48.072;11.616;2023-02-02T12:21:39;95820.34;;;4.25;74.87
9225;BME280;4647;48.072;11.616;2023-02-02T12:24:22;95789.88;;;4.14;75.73
9225;BME280;4647;48.072;11.616;2023-02-02T12:26:55;95819.09;;;4.00;76.34
9225;BME280;4647;48.072;11.616;2023-02-02T12:29:42;95819.41;;;3.95;77.29
9225;BME280;4647;48.072;11.616;2023-02-02T12:32:20;95823.34;;;3.82;78.55
9225;BME280;4647;48.072;11.616;2023-02-02T12:34:59;95813.31;;;3.98;79.00
9225;BME280;4647;48.072;11.616;2023-02-02T12:37:33;95808.47;;;3.84;79.45
9225;BME280;4647;48.072;11.616;2023-02-02T12:40:12;95803.41;;;3.79;79.22
9225;BME280;4647;48.072;11.616;2023-02-02T12:42:47;95812.91;;;3.77;79.84
9225;BME280;4647;48.072;11.616;2023-02-02T12:45:20;95819.13;;;3.81;80.00
9225;BME280;4647;48.072;11.616;2023-02-02T12:47:55;95815.16;;;3.75;80.25
9225;BME280;4647;48.072;11.616;2023-02-02T12:50:30;95816.84;;;3.63;80.17
9225;BME280;4647;48.072;11.616;2023-02-02T12:53:06;95818.06;;;3.66;81.25
9225;BME280;4647;48.072;11.616;2023-02-02T12:55:45;95829.47;;;3.63;80.11
9225;BME280;4647;48.072;11.616;2023-02-02T12:58:18;95827.72;;;3.70;80.62
9225;BME280;4647;48.072;11.616;2023-02-02T13:00:55;95826.19;;;3.54;80.73
9225;BME280;4647;48.072;11.616;2023-02-02T13:03:28;95834.69;;;3.56;80.85
9225;BME280;4647;48.072;11.616;2023-02-02T13:06:02;95836.31;;;3.60;81.15
9225;BME280;4647;48.072;11.616;2023-02-02T13:08:32;95835.72;;;3.51;81.19
9225;BME280;4647;48.072;11.616;2023-02-02T13:11:06;95839.81;;;3.45;81.28
9225;BME280;4647;48.072;11.616;2023-02-02T13:13:54;95845.00;;;3.38;82.00
9225;BME280;4647;48.072;11.616;2023-02-02T13:16:24;95851.91;;;3.39;82.37
9225;BME280;4647;48.072;11.616;2023-02-02T13:18:54;95852.63;;;3.36;82.63
9225;BME280;4647;48.072;11.616;2023-02-02T13:21:23;95859.59;;;3.41;82.74
9225;BME280;4647;48.072;11.616;2023-02-02T13:23:54;95847.19;;;3.32;82.59
9225;BME280;4647;48.072;11.616;2023-02-02T13:26:28;95874.06;;;3.20;83.05
9225;BME280;4647;48.072;11.616;2023-02-02T13:29:01;95862.72;;;3.27;83.67
9225;BME280;4647;48.072;11.616;2023-02-02T13:31:32;95864.56;;;3.23;83.53
9225;BME280;4647;48.072;11.616;2023-02-02T13:34:03;95876.72;;;3.20;88.37
9225;BME280;4647;48.072;11.616;2023-02-02T13:36:33;95870.69;;;3.23;83.48
9225;BME280;4647;48.072;11.616;2023-02-02T13:39:08;95881.47;;;3.27;83.40
9225;BME280;4647;48.072;11.616;2023-02-02T13:41:44;95885.19;;;3.22;83.71
9225;BME280;4647;48.072;11.616;2023-02-02T13:44:13;95894.34;;;3.37;83.14
9225;BME280;4647;48.072;11.616;2023-02-02T13:46:46;95895.03;;;3.34;83.63
9225;BME280;4647;48.072;11.616;2023-02-02T13:49:16;95900.91;;;3.24;84.26